Time;durP1;ratioP1;P1;durP2;ratioP2;P2;SDS_P1;SDS_P2;PMS_P1;PMS_P2;Temp;Humidity;BMP_temperature;BMP_pressure;BME280_temperature;BME280_humidity;BME280_pressure;Samples;Min_cycle;Max_cycle;Signal;HPM_P1;HPM_P2
2021/07/12 00:03:57;;;;;;;7.38;4.70;;;;;;;15.75;84.78;100219.22;21234160;27;20066;-69
2021/07/12 00:13:59;;;;;;;9.13;5.03;;;;;;;15.82;84.32;100212.81;21234177;27;20046;-69
2021/07/12 00:24:00;;;;;;;7.55;5.40;;;;;;;15.51;85.03;100211.31;21232857;27;20047;-69
2021/07/12 00:34:02;;;;;;;8.02;5.55;;;;;;;15.41;85.60;100191.50;21232142;27;20043;-70
2021/07/12 00:44:05;;;;;;;8.57;5.85;;;;;;;15.32;86.05;100181.31;21231872;27;20705;-69
2021/07/12 00:54:07;;;;;;;10.30;6.03;;;;;;;15.32;85.92;100157.56;21230800;27;20043;-69
2021/07/12 01:04:09;;;;;;;10.80;5.57;;;;;;;15.21;86.75;100152.72;21232945;27;20128;-69
2021/07/12 01:14:35;;;;;;;8.35;5.97;;;;;;;15.04;87.68;100139.31;21228469;27;20050;-68
2021/07/12 01:25:14;;;;;;;12.07;6.82;;;;;;;15.05;87.54;100136.63;21228588;27;20046;-69
2021/07/12 01:35:24;;;;;;;10.45;6.13;;;;;;;14.97;87.34;100141.31;21223002;27;20035;-69
2021/07/12 01:45:32;;;;;;;11.32;6.40;;;;;;;14.93;88.08;100139.72;21228286;28;20093;-70
2021/07/12 01:55:41;;;;;;;8.35;6.35;;;;;;;14.94;87.53;100138.78;21236265;27;20568;-70
2021/07/12 02:05:45;;;;;;;9.52;6.63;;;;;;;14.69;87.60;100145.91;21243585;27;20035;-70
2021/07/12 02:15:49;;;;;;;10.27;5.50;;;;;;;14.56;87.99;100130.56;21243456;27;20474;-69
2021/07/12 02:25:52;;;;;;;10.20;7.10;;;;;;;14.58;88.04;100135.75;21242648;27;20126;-69
2021/07/12 02:35:55;;;;;;;10.57;7.50;;;;;;;14.60;87.35;100134.78;21241705;27;20043;-69
2021/07/12 02:45:58;;;;;;;10.07;6.88;;;;;;;14.54;87.69;100108.66;21240920;27;20104;-69
2021/07/12 02:56:00;;;;;;;12.65;8.73;;;;;;;14.58;88.28;100110.28;21240399;27;20043;-69
2021/07/12 03:06:13;;;;;;;12.88;7.93;;;;;;;14.39;89.29;100098.66;21239062;27;20485;-69
2021/07/12 03:16:15;;;;;;;14.02;9.07;;;;;;;14.35;89.73;100097.03;21238813;27;20401;-69
2021/07/12 03:26:19;;;;;;;15.45;9.18;;;;;;;14.45;89.26;100092.28;21237977;27;20074;-69
2021/07/12 03:36:22;;;;;;;13.47;8.07;;;;;;;14.36;88.22;100098.75;21236958;27;20404;-69
2021/07/12 03:46:24;;;;;;;13.55;8.48;;;;;;;14.42;88.82;100059.03;21236487;27;20039;-69
2021/07/12 03:56:26;;;;;;;15.25;8.27;;;;;;;14.33;88.90;100048.84;21236386;27;20055;-71
2021/07/12 04:06:30;;;;;;;13.00;8.15;;;;;;;14.36;89.27;100065.38;21233860;27;20370;-69
2021/07/12 04:16:32;;;;;;;13.23;8.70;;;;;;;14.44;88.43;100058.97;21233162;27;20729;-69
2021/07/12 04:26:34;;;;;;;14.45;7.43;;;;;;;14.71;88.58;100051.81;21233111;27;20050;-69
2021/07/12 04:36:35;;;;;;;10.20;6.65;;;;;;;15.58;84.37;100056.25;21231069;27;20043;-69
2021/07/12 04:46:37;;;;;;;8.38;5.47;;;;;;;16.79;78.76;100043.88;21227547;27;20039;-69
2021/07/12 04:56:39;;;;;;;10.32;5.68;;;;;;;16.54;80.45;100038.84;21231272;27;20046;-70
2021/07/12 05:06:41;;;;;;;8.55;5.20;;;;;;;15.74;83.67;100035.38;21229812;27;20148;-70
2021/07/12 05:16:43;;;;;;;10.50;5.40;;;;;;;15.69;85.01;100037.38;21234925;27;20046;-70
2021/07/12 05:26:45;;;;;;;10.35;5.53;;;;;;;16.02;84.28;100014.78;21228870;27;20450;-70
2021/07/12 05:36:47;;;;;;;11.27;5.40;;;;;;;16.37;82.24;100002.63;21224871;27;20043;-69
2021/07/12 05:46:48;;;;;;;6.95;4.18;;;;;;;16.87;81.01;100019.72;21228819;28;20042;-69
2021/07/12 05:56:50;;;;;;;10.10;4.05;;;;;;;16.96;78.54;100019.28;21228941;28;20051;-70
2021/07/12 06:06:52;;;;;;;6.55;4.53;;;;;;;17.29;78.35;100010.63;21227807;28;20039;-70
2021/07/12 06:16:54;;;;;;;7.20;3.75;;;;;;;17.56;77.93;100001.28;21226859;28;20051;-69
2021/07/12 06:26:56;;;;;;;8.77;3.70;;;;;;;17.87;77.49;100007.69;21226634;28;20126;-68
2021/07/12 06:36:58;;;;;;;7.00;3.55;;;;;;;18.13;75.35;99999.25;21227569;27;20475;-69
2021/07/12 06:47:00;;;;;;;5.25;3.25;;;;;;;18.24;75.49;99980.09;21243496;27;20047;-69
2021/07/12 06:57:02;;;;;;;6.18;3.28;;;;;;;18.53;74.67;99967.06;21242287;27;20043;-70
2021/07/12 07:07:04;;;;;;;5.32;3.13;;;;;;;18.89;73.85;99922.59;21244190;27;20134;-70
2021/07/12 07:17:06;;;;;;;8.20;3.15;;;;;;;18.98;73.23;99896.47;21247823;27;20043;-70
2021/07/12 07:27:09;;;;;;;6.95;2.95;;;;;;;19.27;72.22;99897.41;21247010;27;20556;-70
2021/07/12 07:37:11;;;;;;;5.60;2.70;;;;;;;19.84;69.73;99879.75;21244473;27;20066;-69
2021/07/12 07:47:13;;;;;;;6.07;2.47;;;;;;;20.53;68.42;99854.09;21245799;27;20039;-70
2021/07/12 07:57:16;;;;;;;7.45;2.40;;;;;;;20.73;67.21;99858.94;21238313;27;20065;-68
2021/07/12 08:07:20;;;;;;;4.47;2.10;;;;;;;21.27;63.79;99824.25;21240692;27;20386;-69
2021/07/12 08:17:22;;;;;;;3.87;2.20;;;;;;;21.36;65.67;99816.59;21239811;27;20085;-69
2021/07/12 08:27:24;;;;;;;5.75;2.50;;;;;;;21.37;64.63;99779.22;21239758;27;20092;-68
2021/07/12 08:37:26;;;;;;;5.55;2.10;;;;;;;21.78;63.58;99778.91;21238309;27;20097;-69
2021/07/12 08:47:28;;;;;;;4.68;2.20;;;;;;;22.04;63.05;99802.84;21237538;27;20043;-70
2021/07/12 08:57:29;;;;;;;5.00;1.80;;;;;;;22.15;62.01;99794.94;21238707;27;20480;-69
2021/07/12 09:07:32;;;;;;;2.63;1.52;;;;;;;22.51;62.13;99753.13;21235488;27;20065;-68
2021/07/12 09:17:36;;;;;;;5.30;1.90;;;;;;;22.81;58.88;99815.84;21235815;27;20096;-68
2021/07/12 09:27:42;;;;;;;4.38;2.10;;;;;;;23.68;56.65;99817.16;21235337;27;20035;-69
2021/07/12 09:37:47;;;;;;;6.43;1.60;;;;;;;23.89;56.30;99801.19;21235515;27;20034;-69
2021/07/12 09:47:50;;;;;;;3.50;1.80;;;;;;;24.15;53.37;99797.28;21231407;28;20097;-69
2021/07/12 09:58:12;;;;;;;4.15;1.55;;;;;;;24.24;53.89;99787.63;21233752;28;20394;-69
2021/07/12 10:08:14;;;;;;;12.60;2.00;;;;;;;24.45;53.86;99758.28;21232461;28;20097;-69
2021/07/12 10:18:17;;;;;;;4.82;1.88;;;;;;;24.72;53.48;99739.03;21244884;27;20054;-69
2021/07/12 10:28:37;;;;;;;4.32;1.70;;;;;;;25.31;50.21;99774.09;21249377;27;20558;-69
2021/07/12 10:38:43;;;;;;;3.10;1.50;;;;;;;25.36;48.93;99751.41;21248017;27;20443;-69
2021/07/12 10:48:45;;;;;;;4.38;1.50;;;;;;;25.75;47.66;99758.63;21249299;27;20039;-69
2021/07/12 10:58:47;;;;;;;3.15;1.33;;;;;;;26.38;48.62;99762.84;21245828;27;20459;-69
2021/07/12 11:08:52;;;;;;;3.45;1.60;;;;;;;26.21;45.99;99767.91;21229891;27;20085;-71
2021/07/12 11:18:54;;;;;;;3.42;1.70;;;;;;;26.49;47.70;99757.34;21247757;27;20051;-70
2021/07/12 11:28:57;;;;;;;4.95;1.38;;;;;;;26.59;45.72;99753.69;21244612;27;20456;-70
2021/07/12 11:38:59;;;;;;;3.27;1.73;;;;;;;26.50;46.63;99721.47;21241742;27;20393;-70
2021/07/12 11:49:06;;;;;;;3.20;1.50;;;;;;;26.69;45.30;99705.34;21244461;27;20212;-70
2021/07/12 11:59:08;;;;;;;3.78;1.67;;;;;;;26.62;43.73;99706.03;21243358;27;20527;-70
2021/07/12 12:09:10;;;;;;;3.10;1.83;;;;;;;27.02;44.08;99692.34;21241221;27;20046;-70
2021/07/12 12:19:11;;;;;;;3.05;1.60;;;;;;;26.76;43.96;99658.09;21237567;27;20039;-70
2021/07/12 12:29:15;;;;;;;3.33;1.67;;;;;;;27.03;46.50;99643.88;21239037;27;20472;-69
2021/07/12 12:39:19;;;;;;;3.05;1.65;;;;;;;27.14;44.41;99629.41;21236089;27;20031;-69
2021/07/12 12:49:23;;;;;;;4.43;1.70;;;;;;;27.43;43.45;99629.25;21238913;27;20047;-69
2021/07/12 12:59:32;;;;;;;3.88;1.85;;;;;;;27.51;44.08;99641.97;21236626;27;20044;-69
2021/07/12 13:09:34;;;;;;;5.45;1.70;;;;;;;27.60;43.25;99631.13;21233158;27;20040;-69
2021/07/12 13:19:38;;;;;;;4.82;1.60;;;;;;;27.57;44.46;99631.44;21235700;27;20046;-69
2021/07/12 13:29:40;;;;;;;6.38;1.85;;;;;;;27.60;43.88;99638.34;21235960;27;20043;-70
2021/07/12 13:39:41;;;;;;;4.80;1.80;;;;;;;27.79;42.81;99630.19;21236790;27;20397;-70
2021/07/12 13:49:43;;;;;;;4.65;1.77;;;;;;;27.17;43.49;99596.88;21239494;27;20504;-70
2021/07/12 13:59:45;;;;;;;5.18;1.40;;;;;;;27.09;43.70;99594.09;21250042;27;20043;-71
2021/07/12 14:09:47;;;;;;;2.60;1.50;;;;;;;27.47;44.03;99608.28;21249210;27;20036;-70
2021/07/12 14:19:49;;;;;;;5.25;1.80;;;;;;;27.67;42.32;99599.09;21250736;27;20047;-70
2021/07/12 14:29:50;;;;;;;6.93;1.73;;;;;;;27.63;41.83;99579.72;21247882;27;20108;-70
2021/07/12 14:39:51;;;;;;;5.63;1.80;;;;;;;28.07;40.87;99573.56;21248275;27;20068;-70
2021/07/12 14:49:53;;;;;;;4.13;1.98;;;;;;;28.30;42.12;99569.34;21248040;27;20047;-70
2021/07/12 14:59:55;;;;;;;2.42;1.42;;;;;;;28.31;40.45;99564.81;21244575;27;20441;-69
2021/07/12 15:09:56;;;;;;;4.00;1.60;;;;;;;28.25;40.58;99554.69;21242253;27;20035;-69
2021/07/12 15:19:58;;;;;;;3.28;1.55;;;;;;;28.75;41.54;99562.94;21243459;27;20417;-70
2021/07/12 15:30:01;;;;;;;5.43;1.85;;;;;;;28.63;42.01;99565.03;21241866;27;20039;-70
2021/07/12 15:40:04;;;;;;;2.90;1.43;;;;;;;28.58;41.98;99558.44;21240823;27;20051;-70
2021/07/12 15:50:07;;;;;;;5.72;1.95;;;;;;;28.61;42.64;99556.28;21240236;27;20096;-69
2021/07/12 16:00:11;;;;;;;3.60;1.40;;;;;;;28.42;42.49;99561.91;21239733;27;20069;-68
2021/07/12 16:10:13;;;;;;;4.90;1.73;;;;;;;28.20;42.95;99568.63;21238859;27;20039;-69
2021/07/12 16:20:16;;;;;;;3.17;1.47;;;;;;;28.21;43.90;99567.59;21240953;27;20604;-69
2021/07/12 16:30:17;;;;;;;4.20;1.60;;;;;;;27.76;45.81;99549.78;21237293;27;20051;-69
2021/07/12 16:40:19;;;;;;;4.35;2.03;;;;;;;27.51;45.94;99547.84;21231740;27;20760;-69
2021/07/12 16:50:21;;;;;;;4.60;1.88;;;;;;;27.42;45.24;99541.53;21237372;27;20047;-69
2021/07/12 17:00:24;;;;;;;3.20;1.63;;;;;;;27.37;45.12;99543.84;21235957;27;20496;-69
2021/07/12 17:10:25;;;;;;;2.90;1.40;;;;;;;27.15;47.19;99520.06;21236052;27;20546;-69
2021/07/12 17:20:28;;;;;;;2.50;1.40;;;;;;;26.99;47.68;99526.94;21235453;27;20035;-69
2021/07/12 17:30:31;;;;;;;4.50;1.70;;;;;;;26.75;48.26;99511.38;21234218;27;20393;-69
2021/07/12 17:40:34;;;;;;;3.17;1.85;;;;;;;26.46;50.57;99506.13;21235283;27;20173;-69
2021/07/12 17:50:37;;;;;;;4.22;2.00;;;;;;;26.13;51.44;99510.16;21234078;27;20499;-69
2021/07/12 18:00:38;;;;;;;3.72;1.65;;;;;;;26.01;50.48;99512.16;21234718;27;20516;-70
2021/07/12 18:10:40;;;;;;;2.88;1.67;;;;;;;25.77;50.88;99527.88;21233023;28;20046;-69
2021/07/12 18:20:42;;;;;;;4.00;1.70;;;;;;;25.59;51.72;99543.81;21231806;28;20604;-69
2021/07/12 18:30:47;;;;;;;4.38;1.90;;;;;;;25.44;55.26;99553.22;21230154;28;20186;-69
2021/07/12 18:40:50;;;;;;;4.07;1.83;;;;;;;25.13;55.94;99568.56;21244091;27;20054;-69
2021/07/12 18:50:51;;;;;;;4.35;2.33;;;;;;;24.92;58.08;99582.88;21246012;27;20043;-69
2021/07/12 19:00:53;;;;;;;4.85;2.25;;;;;;;24.71;60.25;99595.44;21244830;27;20523;-70
2021/07/12 19:10:55;;;;;;;5.65;2.33;;;;;;;24.41;61.81;99606.97;21243611;27;20050;-70
2021/07/12 19:20:57;;;;;;;4.40;2.33;;;;;;;24.07;64.23;99639.25;21243185;27;20468;-70
2021/07/12 19:30:58;;;;;;;4.97;2.65;;;;;;;23.88;66.12;99669.34;21242276;27;20047;-70
2021/07/12 19:41:02;;;;;;;7.35;3.13;;;;;;;23.32;71.89;99682.78;21241491;27;20374;-69
2021/07/12 19:51:04;;;;;;;7.50;3.10;;;;;;;21.79;78.58;99721.13;21240178;27;20051;-69
2021/07/12 20:01:06;;;;;;;6.25;3.75;;;;;;;21.18;82.17;99720.19;21238845;27;20047;-70
2021/07/12 20:11:08;;;;;;;8.75;3.70;;;;;;;20.97;83.68;99714.53;21238951;27;20092;-70
2021/07/12 20:21:09;;;;;;;6.82;3.90;;;;;;;21.05;82.75;99720.19;21238623;27;20726;-69
2021/07/12 20:31:11;;;;;;;8.10;4.10;;;;;;;21.01;83.84;99730.19;21237780;27;20035;-69
2021/07/12 20:41:13;;;;;;;10.73;5.25;;;;;;;21.08;85.34;99754.59;21238189;27;20043;-68
2021/07/12 20:51:16;;;;;;;10.48;4.80;;;;;;;21.00;84.59;99748.94;21237274;27;20043;-68
2021/07/12 21:01:18;;;;;;;9.00;4.60;;;;;;;20.90;84.45;99713.28;21236224;27;20039;-68
2021/07/12 21:11:20;;;;;;;10.82;6.35;;;;;;;20.82;83.83;99699.66;21236302;27;20043;-69
2021/07/12 21:21:22;;;;;;;7.75;5.10;;;;;;;20.77;84.85;99699.13;21236085;27;20043;-70
2021/07/12 21:31:23;;;;;;;16.42;10.50;;;;;;;20.73;85.98;99720.59;21235290;27;20489;-71
2021/07/12 21:41:26;;;;;;;9.43;5.95;;;;;;;20.63;85.63;99711.56;21238499;27;20069;-70
2021/07/12 21:51:28;;;;;;;8.68;5.28;;;;;;;20.60;87.10;99719.75;21234104;27;20039;-71
2021/07/12 22:01:30;;;;;;;8.48;5.72;;;;;;;20.51;87.28;99739.00;21233366;28;20101;-71
2021/07/12 22:11:32;;;;;;;10.00;6.25;;;;;;;20.49;87.47;99754.19;21233132;27;20043;-70
2021/07/12 22:21:34;;;;;;;9.45;6.32;;;;;;;20.47;87.66;99751.63;21245369;27;20065;-68
2021/07/12 22:31:39;;;;;;;11.25;6.20;;;;;;;20.37;87.43;99753.19;21242799;27;20244;-69
2021/07/12 22:41:42;;;;;;;10.70;6.18;;;;;;;20.26;87.59;99753.00;21243033;27;20050;-68
2021/07/12 22:51:44;;;;;;;9.63;6.22;;;;;;;20.29;88.16;99770.59;21242166;27;20121;-68
2021/07/12 23:01:47;;;;;;;11.23;6.53;;;;;;;20.14;88.00;99762.66;21240934;27;20066;-69
2021/07/12 23:11:50;;;;;;;11.45;6.82;;;;;;;19.94;88.62;99749.81;21238637;27;20043;-70
2021/07/12 23:21:52;;;;;;;9.02;6.88;;;;;;;19.68;88.83;99723.13;21238334;27;20491;-70
2021/07/12 23:31:55;;;;;;;13.85;7.25;;;;;;;19.61;89.41;99729.78;21235832;27;20051;-69
2021/07/12 23:41:57;;;;;;;11.80;7.28;;;;;;;19.72;88.99;99743.22;21236386;27;20043;-69
2021/07/12 23:51:59;;;;;;;11.02;7.60;;;;;;;19.82;88.83;99729.34;21236282;27;20048;-68
